Time;durP1;ratioP1;P1;durP2;ratioP2;P2;SDS_P1;SDS_P2;PMS_P1;PMS_P2;Temp;Humidity;BMP_temperature;BMP_pressure;BME280_temperature;BME280_humidity;BME280_pressure;Samples;Min_cycle;Max_cycle;Signal;HPM_P1;HPM_P2
2022/05/29 00:01:21;;;;;;;13.95;4.82;;;10.10;99.90;;;;;;4925168;29;20043;-93
2022/05/29 00:03:46;;;;;;;10.57;4.47;;;10.10;99.90;;;;;;4921337;29;20048;-92
2022/05/29 00:06:13;;;;;;;11.35;4.25;;;10.10;99.90;;;;;;4937911;29;20043;-94
2022/05/29 00:08:41;;;;;;;12.07;4.80;;;10.10;99.90;;;;;;4941459;29;20047;-95
2022/05/29 00:11:16;;;;;;;13.50;4.88;;;10.10;99.90;;;;;;4925290;29;20080;-95
2022/05/29 00:13:44;;;;;;;13.60;4.55;;;10.10;99.90;;;;;;4934549;29;20044;-95
2022/05/29 00:16:10;;;;;;;13.05;5.20;;;10.20;99.90;;;;;;4926184;29;20130;-93
2022/05/29 00:18:37;;;;;;;14.48;4.93;;;10.20;99.90;;;;;;4935036;29;20082;-94
2022/05/29 00:21:05;;;;;;;13.57;5.22;;;10.20;99.90;;;;;;4924167;29;20070;-95
2022/05/29 00:23:42;;;;;;;11.55;4.72;;;10.20;99.90;;;;;;4937525;29;20099;-96
2022/05/29 00:26:07;;;;;;;13.45;4.28;;;10.20;99.90;;;;;;4920713;29;20050;-94
2022/05/29 00:28:34;;;;;;;14.15;4.47;;;10.20;99.90;;;;;;4934074;29;20507;-93
2022/05/29 00:30:59;;;;;;;11.10;4.72;;;10.20;99.90;;;;;;4933616;29;20039;-94
2022/05/29 00:33:25;;;;;;;12.52;5.15;;;10.20;99.90;;;;;;4936084;29;20106;-94
2022/05/29 00:35:52;;;;;;;14.15;5.30;;;10.20;99.90;;;;;;4933372;29;20224;-94
2022/05/29 00:38:18;;;;;;;12.27;5.13;;;10.20;99.90;;;;;;4934560;29;20052;-94
2022/05/29 00:40:56;;;;;;;13.35;5.10;;;10.20;99.90;;;;;;4918179;29;20051;-95
2022/05/29 00:43:24;;;;;;;11.88;5.07;;;10.10;99.90;;;;;;4934734;29;20125;-95
2022/05/29 00:45:57;;;;;;;12.93;5.25;;;10.10;99.90;;;;;;4933316;29;20401;-95
2022/05/29 00:48:23;;;;;;;13.63;5.28;;;10.10;99.90;;;;;;4934589;29;20385;-96
2022/05/29 00:50:51;;;;;;;11.95;5.00;;;10.10;99.90;;;;;;4934761;29;20054;-94
2022/05/29 00:53:17;;;;;;;14.55;5.35;;;10.10;99.90;;;;;;4918940;29;20039;-94
2022/05/29 00:55:52;;;;;;;14.35;5.43;;;10.10;99.90;;;;;;4934104;29;20138;-92
2022/05/29 00:58:21;;;;;;;13.98;5.35;;;10.10;99.90;;;;;;4933640;29;20054;-94
2022/05/29 01:00:48;;;;;;;13.90;5.68;;;10.10;99.90;;;;;;4935721;29;20396;-92
2022/05/29 01:03:13;;;;;;;13.65;5.32;;;10.10;99.90;;;;;;4934804;29;20098;-94
2022/05/29 01:05:39;;;;;;;13.15;5.50;;;10.00;99.90;;;;;;4933435;29;20036;-94
2022/05/29 01:08:10;;;;;;;12.95;5.55;;;10.00;99.90;;;;;;4917850;29;20483;-93
2022/05/29 01:10:52;;;;;;;13.10;5.47;;;9.90;99.90;;;;;;4918181;29;20560;-94
2022/05/29 01:13:50;;;;;;;12.60;5.88;;;9.90;99.90;;;;;;4949433;29;20498;-93
2022/05/29 01:16:38;;;;;;;14.90;5.43;;;9.90;99.90;;;;;;4931423;29;20107;-91
2022/05/29 01:19:35;;;;;;;15.13;5.63;;;9.90;99.90;;;;;;4944847;28;20072;-95
2022/05/29 01:22:27;;;;;;;13.52;5.90;;;9.90;99.90;;;;;;4918123;29;20082;-94
2022/05/29 01:25:37;;;;;;;13.40;5.82;;;9.90;99.90;;;;;;4933660;29;20508;-94
2022/05/29 01:28:36;;;;;;;15.88;5.53;;;9.90;99.90;;;;;;4934098;29;20058;-94
2022/05/29 01:31:22;;;;;;;14.25;5.55;;;9.90;99.90;;;;;;4929036;29;20048;-93
2022/05/29 01:34:13;;;;;;;14.57;5.60;;;9.90;99.90;;;;;;4932933;29;20052;-93
2022/05/29 01:37:03;;;;;;;15.50;6.07;;;9.90;99.90;;;;;;4937072;29;20044;-94
2022/05/29 01:40:06;;;;;;;15.35;5.07;;;9.90;99.90;;;;;;4936475;29;20047;-93
2022/05/29 01:42:50;;;;;;;16.90;6.38;;;9.80;99.90;;;;;;4920377;29;20057;-94
2022/05/29 01:45:55;;;;;;;17.92;6.07;;;9.90;99.90;;;;;;4925371;29;20086;-94
2022/05/29 01:48:30;;;;;;;12.52;5.10;;;9.90;99.90;;;;;;4940828;29;20039;-94
2022/05/29 01:51:02;;;;;;;16.70;5.80;;;9.90;99.90;;;;;;4936197;29;20048;-93
2022/05/29 01:53:31;;;;;;;;;;;9.90;99.90;;;;;;4938708;29;20044;-94
2022/05/29 01:56:01;;;;;;;15.48;5.25;;;9.90;99.90;;;;;;4935374;29;20017;-94
2022/05/29 01:58:35;;;;;;;14.50;5.45;;;9.90;99.90;;;;;;4937602;29;20083;-93
2022/05/29 02:01:03;;;;;;;13.38;5.75;;;10.00;99.90;;;;;;4921679;29;20075;-92
2022/05/29 02:03:34;;;;;;;16.05;5.70;;;10.00;99.90;;;;;;4922031;29;20134;-94
2022/05/29 02:06:09;;;;;;;15.15;5.60;;;10.00;99.90;;;;;;4937916;29;20103;-94
2022/05/29 02:09:07;;;;;;;12.02;5.15;;;9.90;99.90;;;;;;4936803;29;20079;-93
2022/05/29 02:11:33;;;;;;;13.18;5.28;;;9.90;99.90;;;;;;4945231;29;20052;-94
2022/05/29 02:14:11;;;;;;;16.80;5.45;;;9.90;99.90;;;;;;4956963;28;20051;-93
2022/05/29 02:17:02;;;;;;;13.73;5.60;;;9.90;99.90;;;;;;4957861;28;20099;-94
2022/05/29 02:19:38;;;;;;;14.55;5.07;;;9.90;99.90;;;;;;4941780;29;20071;-94
2022/05/29 02:22:09;;;;;;;11.50;4.90;;;9.80;99.90;;;;;;4923217;29;20044;-94
2022/05/29 02:24:39;;;;;;;14.05;5.28;;;9.80;99.90;;;;;;4920865;29;20048;-94
2022/05/29 02:27:18;;;;;;;13.05;5.00;;;9.80;99.90;;;;;;4934392;29;20048;-95
2022/05/29 02:29:46;;;;;;;13.75;5.32;;;9.90;99.90;;;;;;4924960;29;20083;-95
2022/05/29 02:32:30;;;;;;;12.82;5.00;;;9.90;99.90;;;;;;4944402;29;20031;-92
2022/05/29 02:35:17;;;;;;;13.10;5.25;;;9.80;99.90;;;;;;4928571;29;20300;-93
2022/05/29 02:37:56;;;;;;;13.52;5.78;;;9.90;99.90;;;;;;4926065;29;20051;-94
2022/05/29 02:40:52;;;;;;;13.63;5.50;;;9.90;99.90;;;;;;4930453;29;20079;-93
2022/05/29 02:44:01;;;;;;;14.97;5.47;;;9.90;99.90;;;;;;4954682;28;20036;-95
2022/05/29 02:46:30;;;;;;;12.50;4.82;;;9.80;99.90;;;;;;4953010;28;20100;-95
2022/05/29 02:49:23;;;;;;;16.40;5.60;;;9.80;99.90;;;;;;4956194;28;20415;-95
2022/05/29 02:51:55;;;;;;;13.65;5.57;;;9.80;99.90;;;;;;4926160;29;20058;-95
2022/05/29 02:54:25;;;;;;;12.55;5.03;;;9.80;99.90;;;;;;4926983;29;20052;-95
2022/05/29 02:56:56;;;;;;;13.15;5.25;;;9.80;99.90;;;;;;4938121;29;20051;-94
2022/05/29 02:59:26;;;;;;;14.27;5.38;;;9.80;99.90;;;;;;4935233;29;20047;-95
2022/05/29 03:02:23;;;;;;;13.57;5.50;;;9.80;99.90;;;;;;4920484;29;20122;-94
2022/05/29 03:05:04;;;;;;;13.05;5.47;;;9.80;99.90;;;;;;4953587;29;20054;-95
2022/05/29 03:07:50;;;;;;;13.00;5.22;;;9.80;99.90;;;;;;4939727;29;20048;-96
2022/05/29 03:10:31;;;;;;;14.00;5.40;;;9.80;99.90;;;;;;4923645;29;20066;-94
2022/05/29 03:13:26;;;;;;;13.82;5.68;;;9.80;99.90;;;;;;4907752;29;20040;-94
2022/05/29 03:16:04;;;;;;;13.32;5.55;;;9.80;99.90;;;;;;4921258;29;20118;-95
2022/05/29 03:18:59;;;;;;;13.85;5.47;;;9.80;99.90;;;;;;4920612;29;20054;-95
2022/05/29 03:21:56;;;;;;;14.77;5.30;;;9.70;99.90;;;;;;4938128;29;20056;-95
2022/05/29 03:24:33;;;;;;;14.75;5.57;;;9.80;99.90;;;;;;4910038;29;20067;-96
2022/05/29 03:27:34;;;;;;;14.77;5.68;;;9.70;99.90;;;;;;4945779;29;20068;-96
2022/05/29 03:30:09;;;;;;;15.52;5.70;;;9.80;99.90;;;;;;4920652;29;20095;-94
2022/05/29 03:32:36;;;;;;;13.82;5.15;;;9.70;99.90;;;;;;4937336;29;20048;-95
2022/05/29 03:35:27;;;;;;;12.32;5.10;;;9.90;99.90;;;;;;4936603;29;20051;-95
2022/05/29 03:37:53;;;;;;;11.15;4.85;;;9.80;99.90;;;;;;4919540;29;20540;-94
2022/05/29 03:40:31;;;;;;;12.80;5.38;;;9.80;99.90;;;;;;4918777;29;20071;-94
2022/05/29 03:42:58;;;;;;;12.65;4.80;;;9.80;99.90;;;;;;4947896;29;20134;-94
2022/05/29 03:45:24;;;;;;;15.80;5.43;;;9.70;99.90;;;;;;4920816;29;20040;-92
2022/05/29 03:47:54;;;;;;;13.32;5.25;;;9.80;99.90;;;;;;4937196;29;20054;-96
2022/05/29 03:50:21;;;;;;;13.07;4.88;;;9.90;99.90;;;;;;4944392;29;20039;-93
2022/05/29 03:52:47;;;;;;;14.07;4.90;;;10.00;99.90;;;;;;4938310;29;20058;-94
2022/05/29 03:55:14;;;;;;;12.20;4.63;;;9.90;99.90;;;;;;4933489;29;20055;-93
2022/05/29 03:57:40;;;;;;;13.27;4.72;;;9.90;99.90;;;;;;4934917;29;20063;-92
2022/05/29 04:00:11;;;;;;;14.23;4.20;;;9.90;99.90;;;;;;4934055;29;20126;-93
2022/05/29 04:02:39;;;;;;;13.32;4.30;;;9.90;99.90;;;;;;4918561;29;20712;-95
2022/05/29 04:05:05;;;;;;;11.00;3.40;;;9.90;99.90;;;;;;4920698;29;20048;-93
2022/05/29 04:13:00;;;;;;;11.98;4.05;;;10.00;99.90;;;;;;4933774;29;20156;-93
2022/05/29 04:15:27;;;;;;;13.45;4.20;;;10.00;99.90;;;;;;4938310;29;20042;-94
2022/05/29 04:17:53;;;;;;;11.70;4.35;;;10.10;99.90;;;;;;4922523;29;20039;-95
2022/05/29 04:20:19;;;;;;;12.20;4.00;;;10.10;99.90;;;;;;4920901;29;20046;-96
2022/05/29 04:22:44;;;;;;;13.70;4.60;;;10.10;99.90;;;;;;4920654;29;20043;-94
2022/05/29 04:25:10;;;;;;;12.57;4.18;;;10.10;99.90;;;;;;4937170;29;20036;-95
2022/05/29 04:27:41;;;;;;;12.13;4.72;;;10.20;99.90;;;;;;4920916;29;20044;-96
2022/05/29 04:30:07;;;;;;;11.27;4.13;;;10.20;99.90;;;;;;4922073;29;20401;-94
2022/05/29 04:35:17;;;;;;;10.82;4.00;;;10.30;99.90;;;;;;4937034;29;20058;-94
2022/05/29 04:37:43;;;;;;;11.80;4.35;;;10.20;99.90;;;;;;4937945;29;20056;-92
2022/05/29 04:40:09;;;;;;;12.05;4.20;;;10.20;99.90;;;;;;4920504;29;20044;-94
2022/05/29 04:42:35;;;;;;;14.00;4.70;;;10.30;99.90;;;;;;4928510;29;20102;-92
2022/05/29 04:45:02;;;;;;;12.90;4.30;;;10.20;99.90;;;;;;4926416;29;20146;-93
2022/05/29 04:47:28;;;;;;;10.63;4.22;;;10.30;99.90;;;;;;4904932;29;20092;-93
2022/05/29 04:49:53;;;;;;;13.45;4.25;;;10.30;99.90;;;;;;4934503;29;20186;-91
2022/05/29 04:52:19;;;;;;;10.32;4.63;;;10.30;99.90;;;;;;4933891;29;20425;-93
2022/05/29 04:54:45;;;;;;;11.98;4.00;;;10.40;99.90;;;;;;4932560;29;20058;-91
2022/05/29 04:57:11;;;;;;;11.65;4.07;;;10.30;99.90;;;;;;4917397;29;20138;-93
2022/05/29 04:59:37;;;;;;;10.50;3.72;;;10.40;99.90;;;;;;4932168;29;20050;-92
2022/05/29 05:02:04;;;;;;;12.70;4.00;;;10.30;99.90;;;;;;4928533;29;20489;-91
2022/05/29 05:04:30;;;;;;;12.27;4.25;;;10.40;99.90;;;;;;4923638;29;20111;-93
2022/05/29 05:06:58;;;;;;;13.27;4.40;;;10.40;99.90;;;;;;4916674;29;20086;-92
2022/05/29 05:09:25;;;;;;;12.77;3.78;;;10.40;99.90;;;;;;4916210;29;20036;-93
2022/05/29 05:11:53;;;;;;;12.13;3.92;;;10.40;99.90;;;;;;4931183;29;20071;-93
2022/05/29 05:14:20;;;;;;;11.15;4.03;;;10.50;99.90;;;;;;4903764;29;20127;-93
2022/05/29 05:16:46;;;;;;;12.07;3.78;;;10.50;99.90;;;;;;4928048;29;20095;-93
2022/05/29 05:19:12;;;;;;;13.40;3.60;;;10.50;99.90;;;;;;4936656;29;20118;-91
2022/05/29 05:21:38;;;;;;;10.13;3.78;;;10.50;99.90;;;;;;4923812;29;20047;-94
2022/05/29 05:24:05;;;;;;;10.93;3.53;;;10.50;99.90;;;;;;4921564;29;20075;-92
2022/05/29 05:26:31;;;;;;;11.55;3.85;;;10.40;99.90;;;;;;4919460;29;20048;-92
2022/05/29 05:28:57;;;;;;;9.77;3.45;;;10.50;99.90;;;;;;4920630;29;20054;-94
2022/05/29 05:31:23;;;;;;;12.45;3.60;;;10.40;99.90;;;;;;4918758;29;20079;-89
2022/05/29 05:33:49;;;;;;;11.85;3.33;;;10.40;99.90;;;;;;4934460;29;20135;-91
2022/05/29 05:36:15;;;;;;;9.85;3.03;;;10.50;99.90;;;;;;4939738;29;20107;-92
2022/05/29 05:38:41;;;;;;;13.27;3.20;;;10.40;99.90;;;;;;4937172;29;20055;-94
2022/05/29 05:41:10;;;;;;;11.95;3.28;;;10.30;99.90;;;;;;4922085;29;20036;-95
2022/05/29 05:43:36;;;;;;;12.27;3.30;;;10.20;99.90;;;;;;4936720;29;20063;-93
2022/05/29 05:46:09;;;;;;;9.52;3.05;;;10.30;99.90;;;;;;4938078;29;20118;-93
2022/05/29 05:48:38;;;;;;;10.43;3.10;;;10.30;99.90;;;;;;4926854;29;20044;-94
2022/05/29 05:51:04;;;;;;;11.88;3.80;;;10.40;99.90;;;;;;4920723;29;20406;-93
2022/05/29 05:53:30;;;;;;;11.70;3.47;;;10.40;99.90;;;;;;4904331;29;20045;-94
2022/05/29 05:55:56;;;;;;;12.18;3.50;;;10.50;99.90;;;;;;4938832;29;20059;-93
2022/05/29 05:58:22;;;;;;;12.07;3.50;;;10.60;99.90;;;;;;4937167;29;20164;-94
2022/05/29 06:00:49;;;;;;;12.07;3.53;;;10.70;99.90;;;;;;4936622;29;20050;-93
2022/05/29 06:03:15;;;;;;;13.43;3.40;;;10.80;99.90;;;;;;4937400;29;20062;-94
2022/05/29 06:05:41;;;;;;;14.57;3.92;;;10.90;99.90;;;;;;4936210;29;20140;-93
2022/05/29 06:08:08;;;;;;;12.63;3.95;;;10.90;99.90;;;;;;4924196;29;20130;-94
2022/05/29 06:10:34;;;;;;;11.07;3.20;;;11.00;99.90;;;;;;4943250;29;20054;-93
2022/05/29 06:13:04;;;;;;;11.82;3.58;;;11.00;99.90;;;;;;4926877;29;20051;-93
2022/05/29 06:15:30;;;;;;;12.57;3.75;;;11.10;99.90;;;;;;4925913;29;20068;-95
2022/05/29 06:17:56;;;;;;;12.57;3.58;;;11.10;99.90;;;;;;4944599;29;20036;-94
2022/05/29 06:20:22;;;;;;;11.40;3.53;;;11.10;99.90;;;;;;4935670;29;20055;-93
2022/05/29 06:22:48;;;;;;;11.48;3.60;;;11.10;99.90;;;;;;4934241;29;20448;-91
2022/05/29 06:25:14;;;;;;;10.55;3.53;;;11.00;99.90;;;;;;4922722;29;20046;-92
2022/05/29 06:27:43;;;;;;;11.40;3.33;;;11.10;99.90;;;;;;4938722;29;20039;-91
2022/05/29 06:30:12;;;;;;;12.68;3.53;;;11.00;99.90;;;;;;4937480;29;20079;-92
2022/05/29 06:32:38;;;;;;;11.82;4.07;;;11.10;99.90;;;;;;4923444;29;20047;-91
2022/05/29 06:35:06;;;;;;;13.90;3.63;;;11.10;99.90;;;;;;4940342;29;20044;-94
2022/05/29 06:37:32;;;;;;;11.38;3.58;;;11.20;99.90;;;;;;4925561;29;20054;-96
2022/05/29 06:39:58;;;;;;;14.20;3.60;;;11.30;99.90;;;;;;4921574;29;20531;-94
2022/05/29 06:42:40;;;;;;;12.70;3.92;;;11.40;99.90;;;;;;4931296;29;20054;-95
2022/05/29 06:45:10;;;;;;;12.57;3.55;;;11.40;99.90;;;;;;4940870;29;20051;-92
2022/05/29 06:47:37;;;;;;;11.77;3.60;;;11.30;99.90;;;;;;4927402;29;20538;-95
2022/05/29 06:50:03;;;;;;;11.98;3.85;;;11.30;99.90;;;;;;4922866;29;20048;-94
2022/05/29 06:52:31;;;;;;;11.57;3.58;;;11.30;99.90;;;;;;4939231;28;20052;-94
2022/05/29 06:54:57;;;;;;;12.38;3.33;;;11.20;99.90;;;;;;4954207;29;20064;-94
2022/05/29 06:57:43;;;;;;;13.43;3.55;;;11.10;99.90;;;;;;4951612;29;20130;-90
2022/05/29 07:08:33;;;;;;;13.75;3.30;;;11.20;99.90;;;;;;4935213;29;20503;-92
2022/05/29 07:11:02;;;;;;;11.93;3.05;;;11.20;99.90;;;;;;4950004;29;20047;-93
2022/05/29 07:13:29;;;;;;;14.98;3.88;;;11.10;99.90;;;;;;4948157;28;20465;-91
2022/05/29 07:15:55;;;;;;;12.70;3.50;;;11.10;99.90;;;;;;4929061;29;20127;-91
2022/05/29 07:18:20;;;;;;;14.10;3.28;;;11.10;99.90;;;;;;4911992;29;20135;-94
2022/05/29 07:20:46;;;;;;;14.30;3.20;;;11.00;99.90;;;;;;4930244;29;20047;-91
2022/05/29 07:23:14;;;;;;;14.13;3.20;;;11.00;99.90;;;;;;4914463;29;20036;-91
2022/05/29 07:25:40;;;;;;;10.43;3.17;;;10.90;99.90;;;;;;4916801;29;20094;-89
2022/05/29 07:28:08;;;;;;;11.93;3.15;;;11.00;99.90;;;;;;4933047;29;20400;-91
2022/05/29 07:30:34;;;;;;;13.05;3.22;;;11.00;99.90;;;;;;4945959;28;20056;-90
2022/05/29 07:33:00;;;;;;;13.35;3.30;;;10.90;99.90;;;;;;4932323;29;20043;-90
2022/05/29 07:35:27;;;;;;;12.35;3.20;;;11.00;99.90;;;;;;4933147;29;20051;-94
2022/05/29 07:37:53;;;;;;;12.73;3.13;;;11.00;99.90;;;;;;4933971;29;20051;-94
2022/05/29 07:40:18;;;;;;;11.57;3.05;;;11.00;99.90;;;;;;4921021;29;20039;-93
2022/05/29 07:45:28;;;;;;;15.05;4.30;;;11.10;99.90;;;;;;4936059;29;20047;-94
2022/05/29 07:47:55;;;;;;;15.15;3.33;;;11.20;99.90;;;;;;4946992;29;20047;-96
2022/05/29 07:50:22;;;;;;;12.15;3.30;;;11.40;99.90;;;;;;4950875;28;20047;-96
2022/05/29 07:52:51;;;;;;;13.07;3.35;;;11.40;99.90;;;;;;4947824;29;20051;-95
2022/05/29 07:55:27;;;;;;;11.57;2.90;;;11.60;99.90;;;;;;4940459;29;20059;-93
2022/05/29 07:57:53;;;;;;;14.43;3.92;;;11.60;99.90;;;;;;4950923;29;20063;-89
2022/05/29 08:00:21;;;;;;;12.15;3.47;;;11.70;99.90;;;;;;4955006;28;20019;-95
2022/05/29 08:02:49;;;;;;;11.45;2.75;;;11.70;99.90;;;;;;4953522;28;20031;-95
2022/05/29 08:05:18;;;;;;;9.95;2.50;;;11.70;99.90;;;;;;4982722;23;20047;-93
2022/05/29 08:10:35;;;;;;;12.18;2.53;;;11.80;99.90;;;;;;4922749;29;20048;-94
2022/05/29 08:13:02;;;;;;;;;;;11.80;99.90;;;;;;4910732;29;20048;-93
2022/05/29 08:15:29;;;;;;;11.02;2.72;;;11.70;99.90;;;;;;4908277;29;19929;-94
2022/05/29 08:17:55;;;;;;;13.13;2.80;;;11.70;99.90;;;;;;4909123;29;20112;-92
2022/05/29 08:20:36;;;;;;;11.52;2.40;;;11.60;99.90;;;;;;4911411;29;20108;-95
2022/05/29 08:23:04;;;;;;;9.80;2.45;;;11.80;99.90;;;;;;4931162;29;20024;-92
2022/05/29 08:33:36;;;;;;;8.32;1.83;;;11.50;99.90;;;;;;4971866;28;20057;-94
2022/05/29 08:36:11;;;;;;;8.63;1.92;;;11.50;99.90;;;;;;4968007;28;20078;-94
2022/05/29 08:38:40;;;;;;;8.98;2.05;;;11.40;99.90;;;;;;4967169;29;20043;-94
2022/05/29 08:41:13;;;;;;;10.18;2.42;;;11.50;99.90;;;;;;4966506;29;20058;-95
2022/05/29 08:43:43;;;;;;;8.85;1.90;;;11.50;99.90;;;;;;4964056;28;20444;-95
2022/05/29 08:46:22;;;;;;;9.10;2.38;;;11.50;99.90;;;;;;4966503;28;20098;-93
2022/05/29 08:51:42;;;;;;;7.25;1.75;;;11.50;99.90;;;;;;4948702;29;20052;-94
2022/05/29 08:54:08;;;;;;;10.20;2.00;;;11.50;99.90;;;;;;4965424;23;20047;-92
2022/05/29 08:56:55;;;;;;;7.25;1.85;;;11.60;99.90;;;;;;4951343;29;20130;-95
2022/05/29 08:59:31;;;;;;;8.35;2.08;;;11.70;99.90;;;;;;4949140;29;20035;-95
2022/05/29 09:02:26;;;;;;;7.47;2.05;;;11.70;99.90;;;;;;4934463;29;20043;-95
2022/05/29 09:04:58;;;;;;;10.30;2.08;;;11.80;99.90;;;;;;4957035;28;20079;-93
2022/05/29 09:07:29;;;;;;;7.10;2.05;;;11.80;99.90;;;;;;4939825;29;20413;-91
2022/05/29 09:10:04;;;;;;;4.80;1.50;;;11.80;99.90;;;;;;4947169;29;20043;-94
2022/05/29 09:12:41;;;;;;;7.97;1.80;;;11.80;99.90;;;;;;4933907;29;20171;-93
2022/05/29 09:15:14;;;;;;;6.93;1.75;;;11.80;99.90;;;;;;4938065;29;20175;-93
2022/05/29 09:17:47;;;;;;;7.43;1.65;;;11.80;99.90;;;;;;4939100;29;20097;-94
2022/05/29 09:20:42;;;;;;;7.35;1.98;;;11.50;99.90;;;;;;4968533;28;20098;-95
2022/05/29 09:23:09;;;;;;;6.68;1.63;;;11.50;99.90;;;;;;4954937;29;20023;-91
2022/05/29 09:25:43;;;;;;;9.82;1.83;;;11.40;99.90;;;;;;5084052;23;20070;-93
2022/05/29 09:28:32;;;;;;;7.90;1.90;;;11.40;99.90;;;;;;4988184;28;20054;-95
2022/05/29 09:31:21;;;;;;;8.25;1.98;;;11.50;99.90;;;;;;4987088;28;20570;-96
2022/05/29 09:33:51;;;;;;;7.43;2.10;;;11.50;99.90;;;;;;4967182;28;20437;-94
2022/05/29 09:36:52;;;;;;;8.88;1.95;;;11.60;99.90;;;;;;4969046;28;20039;-96
2022/05/29 09:39:27;;;;;;;8.82;2.05;;;11.70;99.90;;;;;;4964668;28;20063;-94
2022/05/29 09:42:06;;;;;;;9.07;1.80;;;11.90;99.90;;;;;;4965798;28;20094;-96
2022/05/29 09:44:32;;;;;;;10.40;1.83;;;11.90;99.90;;;;;;4973373;29;20054;-92
2022/05/29 09:49:40;;;;;;;8.60;2.33;;;11.90;99.90;;;;;;4978867;28;20496;-94
2022/05/29 09:52:35;;;;;;;7.93;1.85;;;12.10;99.90;;;;;;5043534;23;20302;-92
2022/05/29 09:55:13;;;;;;;8.30;2.08;;;12.40;99.90;;;;;;4970557;28;20054;-96
2022/05/29 10:00:42;;;;;;;9.82;2.58;;;12.60;99.90;;;;;;4929800;29;20056;-96
2022/05/29 10:03:27;;;;;;;9.55;1.80;;;12.70;99.90;;;;;;4913616;29;20109;-94
2022/05/29 10:06:12;;;;;;;7.07;1.50;;;12.60;99.90;;;;;;4894822;29;20544;-89
2022/05/29 10:08:39;;;;;;;7.72;1.58;;;12.60;99.90;;;;;;4924219;29;20048;-91
2022/05/29 10:11:33;;;;;;;6.63;1.77;;;12.60;99.90;;;;;;4907551;29;20438;-92
2022/05/29 10:14:20;;;;;;;7.70;1.90;;;12.60;99.90;;;;;;4925949;29;20131;-95
2022/05/29 10:16:47;;;;;;;7.63;1.40;;;12.60;99.90;;;;;;4926423;29;20084;-93
2022/05/29 10:19:30;;;;;;;6.18;1.40;;;12.70;99.90;;;;;;4907500;29;20051;-94
2022/05/29 10:21:58;;;;;;;7.47;1.70;;;12.70;99.90;;;;;;4928779;29;20052;-94
2022/05/29 10:24:37;;;;;;;6.03;1.75;;;12.60;99.90;;;;;;4912815;29;20542;-95
2022/05/29 10:27:21;;;;;;;9.50;2.10;;;12.50;99.90;;;;;;4943613;29;20051;-92
2022/05/29 10:29:57;;;;;;;9.10;1.70;;;12.50;99.90;;;;;;4942269;28;20040;-94
2022/05/29 10:32:27;;;;;;;7.78;1.70;;;12.50;99.90;;;;;;4927246;29;20051;-94
2022/05/29 10:35:20;;;;;;;7.30;1.60;;;12.40;99.90;;;;;;4928703;29;20094;-93
2022/05/29 10:37:48;;;;;;;7.80;1.55;;;12.20;99.90;;;;;;4941338;29;20058;-93
2022/05/29 10:40:23;;;;;;;8.00;1.80;;;12.10;99.90;;;;;;4940304;29;20134;-94
2022/05/29 10:42:54;;;;;;;5.78;1.60;;;12.10;99.90;;;;;;4940125;29;20048;-95
2022/05/29 10:45:44;;;;;;;7.13;1.70;;;12.10;99.90;;;;;;4904494;29;20059;-94
2022/05/29 10:48:10;;;;;;;7.60;1.55;;;12.00;99.90;;;;;;4927685;29;20059;-95
2022/05/29 10:50:56;;;;;;;8.77;1.92;;;12.00;99.90;;;;;;4922359;29;20044;-95
2022/05/29 10:53:42;;;;;;;6.45;1.38;;;12.10;99.90;;;;;;4904103;29;20124;-90
2022/05/29 10:56:13;;;;;;;8.38;2.15;;;12.20;99.90;;;;;;4919679;29;20044;-95
2022/05/29 10:59:17;;;;;;;7.75;1.77;;;12.30;99.90;;;;;;4916194;29;20056;-91
2022/05/29 11:05:16;;;;;;;7.35;1.58;;;12.60;99.90;;;;;;4919139;29;20066;-92
2022/05/29 11:08:04;;;;;;;5.97;1.27;;;12.90;99.90;;;;;;4920231;29;20107;-93
2022/05/29 11:10:35;;;;;;;5.45;1.20;;;13.00;99.90;;;;;;4919814;29;20140;-90
2022/05/29 11:13:21;;;;;;;6.65;1.45;;;13.10;99.90;;;;;;4922869;29;20146;-93
2022/05/29 11:16:08;;;;;;;6.25;2.03;;;13.00;99.90;;;;;;4922766;29;20048;-92
2022/05/29 11:18:57;;;;;;;7.72;1.75;;;12.90;99.90;;;;;;4931656;29;20068;-92
2022/05/29 11:21:58;;;;;;;7.88;1.63;;;12.70;99.90;;;;;;4919755;29;20108;-94
2022/05/29 11:24:42;;;;;;;;;;;12.40;99.90;;;;;;4930480;29;20395;-93
2022/05/29 11:27:24;;;;;;;5.15;1.40;;;12.20;99.90;;;;;;4916032;29;19923;-90
2022/05/29 11:30:04;;;;;;;4.97;1.40;;;12.20;99.90;;;;;;4916521;29;20048;-92
2022/05/29 11:32:33;;;;;;;6.72;1.90;;;12.10;99.90;;;;;;4916245;29;20055;-91
2022/05/29 11:35:29;;;;;;;7.32;2.00;;;12.10;99.90;;;;;;4915621;29;20196;-96
2022/05/29 11:38:15;;;;;;;5.30;1.42;;;12.20;99.90;;;;;;4918399;29;20048;-91
2022/05/29 11:40:48;;;;;;;7.57;1.55;;;12.30;99.90;;;;;;4917919;29;20051;-93
2022/05/29 11:43:33;;;;;;;7.22;1.80;;;12.40;99.90;;;;;;4921298;29;20379;-92
2022/05/29 11:52:46;;;;;;;7.32;1.60;;;13.00;99.90;;;;;;4918342;29;20406;-93
2022/05/29 11:55:21;;;;;;;5.63;1.40;;;13.20;99.90;;;;;;4900159;29;20505;-94
2022/05/29 11:58:20;;;;;;;7.15;1.58;;;13.30;99.90;;;;;;4901913;29;20036;-91
2022/05/29 12:01:01;;;;;;;5.32;1.27;;;13.30;99.90;;;;;;4884968;29;20068;-94
2022/05/29 12:04:05;;;;;;;7.93;1.63;;;13.30;99.90;;;;;;4911177;29;20047;-94
2022/05/29 12:06:34;;;;;;;7.63;1.80;;;13.30;99.90;;;;;;4912361;29;20056;-94
2022/05/29 12:09:03;;;;;;;6.40;1.65;;;13.30;99.90;;;;;;4908929;29;20036;-90
2022/05/29 12:11:45;;;;;;;7.15;1.90;;;13.10;99.90;;;;;;4889382;29;20493;-92
2022/05/29 12:14:37;;;;;;;8.48;1.75;;;12.90;99.90;;;;;;4889775;29;20048;-92
2022/05/29 12:17:18;;;;;;;5.43;1.60;;;12.60;99.90;;;;;;4906107;29;20048;-92
2022/05/29 12:19:46;;;;;;;;;;;12.50;99.90;;;;;;4924518;29;20058;-90
2022/05/29 12:22:15;;;;;;;8.27;1.60;;;12.20;99.90;;;;;;4922380;29;19986;-95
2022/05/29 12:24:47;;;;;;;6.85;1.65;;;12.10;99.90;;;;;;4922733;29;20048;-92
2022/05/29 12:27:15;;;;;;;6.60;1.70;;;12.10;99.90;;;;;;4938437;29;20119;-93
2022/05/29 12:29:57;;;;;;;8.65;1.92;;;12.20;99.90;;;;;;4919578;29;20040;-90
2022/05/29 12:32:25;;;;;;;8.77;1.90;;;12.30;99.90;;;;;;4938373;29;20505;-93
2022/05/29 12:35:02;;;;;;;7.22;1.77;;;12.50;99.90;;;;;;4922756;29;20048;-91
2022/05/29 12:37:37;;;;;;;6.32;1.65;;;12.60;99.90;;;;;;4925641;29;20048;-94
2022/05/29 12:40:39;;;;;;;6.63;1.60;;;12.80;99.90;;;;;;4921782;29;20047;-90
2022/05/29 12:43:26;;;;;;;8.85;2.10;;;13.00;99.90;;;;;;4922031;29;20051;-91
2022/05/29 12:46:07;;;;;;;8.27;1.85;;;13.20;99.90;;;;;;4920034;29;20127;-91
2022/05/29 12:49:01;;;;;;;7.22;1.65;;;13.40;99.90;;;;;;4934274;29;20095;-92
2022/05/29 12:51:55;;;;;;;6.85;1.80;;;13.40;99.90;;;;;;4921083;29;20055;-93
2022/05/29 12:54:42;;;;;;;9.38;2.38;;;13.40;99.90;;;;;;4933295;29;20052;-93
2022/05/29 12:57:24;;;;;;;8.38;1.80;;;13.30;99.90;;;;;;4914347;29;20398;-94
2022/05/29 13:00:28;;;;;;;7.35;1.85;;;13.20;99.90;;;;;;4883866;29;20147;-94
2022/05/29 13:03:35;;;;;;;9.07;2.08;;;13.00;99.90;;;;;;4872078;29;20056;-95
2022/05/29 13:06:19;;;;;;;9.90;1.98;;;13.00;99.90;;;;;;4901098;29;20044;-95
2022/05/29 13:08:57;;;;;;;9.68;2.17;;;12.90;99.90;;;;;;4881694;29;20080;-91
2022/05/29 13:11:37;;;;;;;7.30;1.88;;;12.90;99.90;;;;;;4909344;29;20079;-92
2022/05/29 13:14:07;;;;;;;10.20;2.33;;;13.00;99.90;;;;;;4901090;29;20075;-92
2022/05/29 13:16:39;;;;;;;8.37;2.23;;;12.80;99.90;;;;;;4915763;29;20087;-91
2022/05/29 13:19:21;;;;;;;9.48;2.03;;;12.80;99.90;;;;;;4916602;29;20044;-95
2022/05/29 13:22:05;;;;;;;7.63;2.00;;;12.80;99.90;;;;;;4915229;29;20052;-93
2022/05/29 13:24:40;;;;;;;7.28;1.65;;;12.70;99.90;;;;;;4922481;29;20044;-94
2022/05/29 13:27:09;;;;;;;8.50;1.70;;;12.70;99.90;;;;;;4898865;29;20055;-95
2022/05/29 13:29:40;;;;;;;8.77;1.65;;;12.80;99.90;;;;;;4907832;29;20043;-91
2022/05/29 13:32:15;;;;;;;;;;;12.90;99.90;;;;;;4921899;29;20052;-93
2022/05/29 13:34:47;;;;;;;8.00;1.95;;;12.90;99.90;;;;;;4921623;29;19994;-95
2022/05/29 13:37:28;;;;;;;11.43;2.40;;;13.00;99.90;;;;;;4925378;29;20099;-93
2022/05/29 13:40:04;;;;;;;10.30;2.22;;;13.00;99.90;;;;;;4929562;29;20052;-93
2022/05/29 13:42:43;;;;;;;8.73;2.00;;;13.10;99.90;;;;;;4940106;28;20112;-92
2022/05/29 13:45:24;;;;;;;9.75;1.88;;;13.00;99.90;;;;;;4936328;29;20030;-89
2022/05/29 13:48:05;;;;;;;9.13;2.00;;;13.00;99.90;;;;;;4938545;29;20044;-91
2022/05/29 13:50:50;;;;;;;8.93;2.03;;;13.10;99.90;;;;;;4925712;29;20056;-92
2022/05/29 13:53:43;;;;;;;11.75;2.03;;;13.10;99.90;;;;;;4922753;29;20079;-95
2022/05/29 13:56:14;;;;;;;7.80;1.83;;;13.10;99.90;;;;;;4888632;29;20044;-90
2022/05/29 14:04:51;;;;;;;8.80;2.30;;;12.90;99.90;;;;;;4931814;29;20063;-91
2022/05/29 14:07:25;;;;;;;7.88;2.00;;;12.80;99.90;;;;;;4923594;29;20048;-94
2022/05/29 14:13:06;;;;;;;8.02;2.22;;;12.80;99.90;;;;;;5061126;23;20057;-95
2022/05/29 14:15:48;;;;;;;8.15;2.00;;;12.90;99.90;;;;;;4987984;23;20062;-88
2022/05/29 14:18:56;;;;;;;8.27;1.80;;;12.90;99.90;;;;;;4951644;28;20105;-93
2022/05/29 14:21:42;;;;;;;7.35;1.75;;;12.90;99.90;;;;;;4954877;28;20403;-91